sensor_id;sensor_type;location;lat;lon;timestamp;pressure;altitude;pressure_sealevel;temperature;humidity
22311;BME280;11323;49.610;11.016;2023-05-08T00:04:00;98544.88;;;19.64;61.15
22311;BME280;11323;49.610;11.016;2023-05-08T00:09:01;98547.53;;;19.64;60.82
22311;BME280;11323;49.610;11.016;2023-05-08T00:14:01;98543.25;;;19.63;60.94
22311;BME280;11323;49.610;11.016;2023-05-08T00:19:02;98541.00;;;19.59;61.07
22311;BME280;11323;49.610;11.016;2023-05-08T00:24:03;98546.09;;;19.61;60.94
22311;BME280;11323;49.610;11.016;2023-05-08T00:29:03;98544.66;;;19.58;60.97
22311;BME280;11323;49.610;11.016;2023-05-08T00:34:04;98539.97;;;19.60;60.92
22311;BME280;11323;49.610;11.016;2023-05-08T00:39:04;98542.03;;;19.58;60.90
22311;BME280;11323;49.610;11.016;2023-05-08T00:44:04;98539.56;;;19.57;61.21
22311;BME280;11323;49.610;11.016;2023-05-08T00:49:05;98543.22;;;19.56;60.78
22311;BME280;11323;49.610;11.016;2023-05-08T00:54:06;98539.97;;;19.60;60.96
22311;BME280;11323;49.610;11.016;2023-05-08T00:59:08;98541.19;;;19.58;60.94
22311;BME280;11323;49.610;11.016;2023-05-08T01:04:10;98544.03;;;19.56;60.95
22311;BME280;11323;49.610;11.016;2023-05-08T01:09:11;98551.34;;;19.54;61.23
22311;BME280;11323;49.610;11.016;2023-05-08T01:30:15;98572.22;;;19.49;61.74
22311;BME280;11323;49.610;11.016;2023-05-08T01:35:28;98576.13;;;19.53;61.41
22311;BME280;11323;49.610;11.016;2023-05-08T01:40:55;98587.34;;;19.55;61.40
22311;BME280;11323;49.610;11.016;2023-05-08T01:46:04;98585.44;;;19.49;61.58
22311;BME280;11323;49.610;11.016;2023-05-08T01:51:13;98587.91;;;19.51;61.61
22311;BME280;11323;49.610;11.016;2023-05-08T01:56:20;98583.25;;;19.53;61.41
22311;BME280;11323;49.610;11.016;2023-05-08T02:01:23;98587.09;;;19.50;61.57
22311;BME280;11323;49.610;11.016;2023-05-08T02:06:25;98592.19;;;19.52;61.55
22311;BME280;11323;49.610;11.016;2023-05-08T02:11:27;98588.94;;;19.50;61.15
22311;BME280;11323;49.610;11.016;2023-05-08T02:16:29;98588.72;;;19.51;61.55
22311;BME280;11323;49.610;11.016;2023-05-08T02:21:32;98597.66;;;19.50;61.21
22311;BME280;11323;49.610;11.016;2023-05-08T02:26:33;98594.00;;;19.51;61.30
22311;BME280;11323;49.610;11.016;2023-05-08T02:31:35;98602.94;;;19.50;61.40
22311;BME280;11323;49.610;11.016;2023-05-08T02:36:37;98616.16;;;19.50;61.54
22311;BME280;11323;49.610;11.016;2023-05-08T02:41:40;98610.25;;;19.48;61.42
22311;BME280;11323;49.610;11.016;2023-05-08T02:47:04;98611.88;;;19.49;61.39
22311;BME280;11323;49.610;11.016;2023-05-08T02:57:46;98614.72;;;19.48;61.47
22311;BME280;11323;49.610;11.016;2023-05-08T03:02:58;98622.03;;;19.45;61.28
22311;BME280;11323;49.610;11.016;2023-05-08T03:08:04;98619.22;;;19.47;61.60
22311;BME280;11323;49.610;11.016;2023-05-08T03:13:08;98614.94;;;19.46;61.00
22311;BME280;11323;49.610;11.016;2023-05-08T03:18:13;98607.38;;;19.43;61.56
22311;BME280;11323;49.610;11.016;2023-05-08T03:23:17;98612.66;;;19.43;61.45
22311;BME280;11323;49.610;11.016;2023-05-08T03:28:19;98608.56;;;19.40;61.40
22311;BME280;11323;49.610;11.016;2023-05-08T03:33:22;98622.41;;;19.42;61.59
22311;BME280;11323;49.610;11.016;2023-05-08T03:38:22;98617.31;;;19.41;61.33
22311;BME280;11323;49.610;11.016;2023-05-08T03:43:23;98608.25;;;19.28;61.61
22311;BME280;11323;49.610;11.016;2023-05-08T03:48:24;98617.50;;;19.39;61.21
22311;BME280;11323;49.610;11.016;2023-05-08T03:53:25;98620.31;;;19.38;61.63
22311;BME280;11323;49.610;11.016;2023-05-08T03:58:49;98624.59;;;19.39;61.49
22311;BME280;11323;49.610;11.016;2023-05-08T04:04:06;98622.38;;;19.36;61.29
22311;BME280;11323;49.610;11.016;2023-05-08T04:09:16;98623.97;;;19.37;61.47
22311;BME280;11323;49.610;11.016;2023-05-08T04:14:23;98621.28;;;19.30;61.29
22311;BME280;11323;49.610;11.016;2023-05-08T04:19:26;98626.00;;;19.35;61.09
22311;BME280;11323;49.610;11.016;2023-05-08T04:24:30;98630.47;;;19.34;61.23
22311;BME280;11323;49.610;11.016;2023-05-08T04:29:33;98625.38;;;19.33;61.23
22311;BME280;11323;49.610;11.016;2023-05-08T04:34:35;98632.88;;;19.29;61.30
22311;BME280;11323;49.610;11.016;2023-05-08T04:39:36;98635.50;;;19.29;61.03
22311;BME280;11323;49.610;11.016;2023-05-08T04:44:37;98635.31;;;19.31;61.04
22311;BME280;11323;49.610;11.016;2023-05-08T04:49:38;98640.59;;;19.31;61.21
22311;BME280;11323;49.610;11.016;2023-05-08T04:54:38;98641.34;;;19.24;60.62
22311;BME280;11323;49.610;11.016;2023-05-08T04:59:39;98650.66;;;19.20;60.15
22311;BME280;11323;49.610;11.016;2023-05-08T05:04:40;98655.06;;;19.13;60.19
22311;BME280;11323;49.610;11.016;2023-05-08T05:09:41;98664.72;;;19.06;59.64
22311;BME280;11323;49.610;11.016;2023-05-08T05:14:42;98657.78;;;19.05;59.08
22311;BME280;11323;49.610;11.016;2023-05-08T05:19:44;98671.00;;;19.05;58.63
22311;BME280;11323;49.610;11.016;2023-05-08T05:24:50;98662.63;;;19.01;58.23
22311;BME280;11323;49.610;11.016;2023-05-08T05:29:51;98661.19;;;18.98;58.36
22311;BME280;11323;49.610;11.016;2023-05-08T05:34:52;98663.84;;;18.98;58.01
22311;BME280;11323;49.610;11.016;2023-05-08T05:39:53;98668.13;;;19.00;57.92
22311;BME280;11323;49.610;11.016;2023-05-08T05:44:54;98669.47;;;18.95;58.03
22311;BME280;11323;49.610;11.016;2023-05-08T05:49:56;98684.53;;;18.95;57.61
22311;BME280;11323;49.610;11.016;2023-05-08T05:54:57;98673.84;;;18.88;57.66
22311;BME280;11323;49.610;11.016;2023-05-08T05:59:57;98684.41;;;18.88;57.39
22311;BME280;11323;49.610;11.016;2023-05-08T06:04:59;98692.13;;;18.90;57.40
22311;BME280;11323;49.610;11.016;2023-05-08T06:10:00;98694.97;;;18.88;56.76
22311;BME280;11323;49.610;11.016;2023-05-08T06:15:00;98691.69;;;18.86;57.17
22311;BME280;11323;49.610;11.016;2023-05-08T06:20:01;98690.69;;;18.87;57.92
22311;BME280;11323;49.610;11.016;2023-05-08T06:25:02;98691.34;;;18.89;56.52
22311;BME280;11323;49.610;11.016;2023-05-08T06:30:06;98692.13;;;18.90;56.06
22311;BME280;11323;49.610;11.016;2023-05-08T06:35:08;98696.63;;;18.89;55.72
22311;BME280;11323;49.610;11.016;2023-05-08T06:40:09;98707.19;;;18.89;55.79
22311;BME280;11323;49.610;11.016;2023-05-08T06:45:09;98702.81;;;18.96;55.28
22311;BME280;11323;49.610;11.016;2023-05-08T06:50:10;98693.91;;;18.97;55.04
22311;BME280;11323;49.610;11.016;2023-05-08T06:55:10;98686.97;;;18.96;55.34
22311;BME280;11323;49.610;11.016;2023-05-08T07:00:11;98694.78;;;19.05;56.34
22311;BME280;11323;49.610;11.016;2023-05-08T07:05:12;98688.59;;;18.97;55.42
22311;BME280;11323;49.610;11.016;2023-05-08T07:10:12;98685.97;;;18.97;55.63
22311;BME280;11323;49.610;11.016;2023-05-08T07:15:13;98690.63;;;18.95;55.20
22311;BME280;11323;49.610;11.016;2023-05-08T07:20:13;98682.06;;;18.93;55.14
22311;BME280;11323;49.610;11.016;2023-05-08T07:25:14;98696.81;;;19.03;56.12
22311;BME280;11323;49.610;11.016;2023-05-08T07:30:15;98686.59;;;19.00;55.32
22311;BME280;11323;49.610;11.016;2023-05-08T07:35:15;98690.88;;;19.01;56.43
22311;BME280;11323;49.610;11.016;2023-05-08T07:40:17;98690.25;;;18.98;56.44
22311;BME280;11323;49.610;11.016;2023-05-08T07:45:17;98694.53;;;19.00;56.07
22311;BME280;11323;49.610;11.016;2023-05-08T07:50:18;98699.38;;;18.96;56.40
22311;BME280;11323;49.610;11.016;2023-05-08T07:55:19;98694.91;;;18.96;56.65
22311;BME280;11323;49.610;11.016;2023-05-08T08:00:20;98696.34;;;18.99;56.52
22311;BME280;11323;49.610;11.016;2023-05-08T08:05:21;98691.63;;;18.94;56.30
22311;BME280;11323;49.610;11.016;2023-05-08T08:10:21;98702.53;;;18.91;56.40
22311;BME280;11323;49.610;11.016;2023-05-08T08:15:22;98701.50;;;18.92;56.42
22311;BME280;11323;49.610;11.016;2023-05-08T08:20:22;98701.91;;;18.89;56.33
22311;BME280;11323;49.610;11.016;2023-05-08T08:25:23;98695.78;;;18.89;56.16
22311;BME280;11323;49.610;11.016;2023-05-08T08:30:23;98696.22;;;18.92;56.28
22311;BME280;11323;49.610;11.016;2023-05-08T08:35:24;98695.25;;;18.93;55.71
22311;BME280;11323;49.610;11.016;2023-05-08T08:40:28;98699.00;;;18.54;52.90
22311;BME280;11323;49.610;11.016;2023-05-08T08:45:29;98694.63;;;18.31;52.27
22311;BME280;11323;49.610;11.016;2023-05-08T08:50:31;98694.72;;;18.38;52.58
22311;BME280;11323;49.610;11.016;2023-05-08T08:55:33;98694.63;;;18.31;52.63
22311;BME280;11323;49.610;11.016;2023-05-08T09:00:36;98699.78;;;18.25;52.37
22311;BME280;11323;49.610;11.016;2023-05-08T09:05:38;98702.25;;;18.26;51.87
22311;BME280;11323;49.610;11.016;2023-05-08T09:10:38;98695.72;;;18.22;52.44
22311;BME280;11323;49.610;11.016;2023-05-08T09:15:39;98696.41;;;18.16;51.60
22311;BME280;11323;49.610;11.016;2023-05-08T09:20:40;98702.75;;;18.06;51.88
22311;BME280;11323;49.610;11.016;2023-05-08T09:30:52;98703.13;;;18.03;51.94
22311;BME280;11323;49.610;11.016;2023-05-08T09:35:56;98698.56;;;17.97;52.78
22311;BME280;11323;49.610;11.016;2023-05-08T09:41:10;98696.56;;;17.99;52.01
22311;BME280;11323;49.610;11.016;2023-05-08T09:46:25;98694.59;;;17.93;52.02
22311;BME280;11323;49.610;11.016;2023-05-08T09:51:27;98706.63;;;17.96;52.09
22311;BME280;11323;49.610;11.016;2023-05-08T09:56:36;98693.03;;;17.84;52.27
22311;BME280;11323;49.610;11.016;2023-05-08T10:01:37;98695.88;;;17.82;52.22
22311;BME280;11323;49.610;11.016;2023-05-08T10:06:38;98695.56;;;17.77;52.07
22311;BME280;11323;49.610;11.016;2023-05-08T10:11:40;98695.28;;;17.72;52.13
22311;BME280;11323;49.610;11.016;2023-05-08T10:16:43;98699.66;;;17.80;52.71
22311;BME280;11323;49.610;11.016;2023-05-08T10:21:47;98689.59;;;17.83;52.60
22311;BME280;11323;49.610;11.016;2023-05-08T10:27:07;98692.63;;;17.95;52.46
22311;BME280;11323;49.610;11.016;2023-05-08T10:32:09;98690.81;;;17.96;52.23
22311;BME280;11323;49.610;11.016;2023-05-08T10:37:11;98693.59;;;17.94;52.36
22311;BME280;11323;49.610;11.016;2023-05-08T10:42:12;98698.22;;;17.92;52.85
22311;BME280;11323;49.610;11.016;2023-05-08T10:47:23;98698.06;;;17.94;53.07
22311;BME280;11323;49.610;11.016;2023-05-08T10:52:48;98692.47;;;17.97;52.63
22311;BME280;11323;49.610;11.016;2023-05-08T10:58:09;98692.81;;;17.94;52.63
22311;BME280;11323;49.610;11.016;2023-05-08T11:03:10;98684.69;;;17.95;53.30
22311;BME280;11323;49.610;11.016;2023-05-08T11:08:14;98684.00;;;18.01;53.25
22311;BME280;11323;49.610;11.016;2023-05-08T11:13:17;98688.94;;;18.04;53.30
22311;BME280;11323;49.610;11.016;2023-05-08T11:18:18;98675.78;;;17.96;52.79
22311;BME280;11323;49.610;11.016;2023-05-08T11:23:22;98680.38;;;18.02;52.90
22311;BME280;11323;49.610;11.016;2023-05-08T11:28:23;98676.75;;;18.03;53.08
22311;BME280;11323;49.610;11.016;2023-05-08T11:33:29;98681.31;;;18.10;53.44
22311;BME280;11323;49.610;11.016;2023-05-08T11:38:34;98681.75;;;18.13;54.07
22311;BME280;11323;49.610;11.016;2023-05-08T11:48:57;98676.03;;;18.10;53.18
22311;BME280;11323;49.610;11.016;2023-05-08T11:54:00;98678.03;;;18.08;53.31
22311;BME280;11323;49.610;11.016;2023-05-08T11:59:05;98675.75;;;18.04;53.76
22311;BME280;11323;49.610;11.016;2023-05-08T12:04:09;98669.47;;;18.05;53.35
22311;BME280;11323;49.610;11.016;2023-05-08T12:09:11;98691.22;;;18.08;54.00
22311;BME280;11323;49.610;11.016;2023-05-08T12:14:12;98684.06;;;18.16;54.14
22311;BME280;11323;49.610;11.016;2023-05-08T12:19:16;98676.84;;;18.25;54.16
22311;BME280;11323;49.610;11.016;2023-05-08T12:24:16;98680.78;;;18.29;54.22
22311;BME280;11323;49.610;11.016;2023-05-08T12:29:21;98678.44;;;18.34;54.42
22311;BME280;11323;49.610;11.016;2023-05-08T12:34:23;98676.41;;;18.36;54.70
22311;BME280;11323;49.610;11.016;2023-05-08T12:39:23;98669.13;;;18.39;54.50
22311;BME280;11323;49.610;11.016;2023-05-08T12:44:25;98671.22;;;18.43;54.47
22311;BME280;11323;49.610;11.016;2023-05-08T12:49:27;98667.44;;;18.46;54.41
22311;BME280;11323;49.610;11.016;2023-05-08T12:54:32;98670.13;;;18.52;55.06
22311;BME280;11323;49.610;11.016;2023-05-08T12:59:33;98674.69;;;18.59;55.92
22311;BME280;11323;49.610;11.016;2023-05-08T13:04:36;98673.50;;;18.61;56.32
22311;BME280;11323;49.610;11.016;2023-05-08T13:09:38;98670.75;;;18.70;56.12
22311;BME280;11323;49.610;11.016;2023-05-08T13:14:38;98663.47;;;18.72;56.57
22311;BME280;11323;49.610;11.016;2023-05-08T13:19:39;98658.63;;;18.75;56.80
22311;BME280;11323;49.610;11.016;2023-05-08T13:24:39;98644.91;;;18.80;56.25
22311;BME280;11323;49.610;11.016;2023-05-08T13:29:39;98656.72;;;18.84;55.38
22311;BME280;11323;49.610;11.016;2023-05-08T13:34:40;98647.81;;;18.85;55.83
22311;BME280;11323;49.610;11.016;2023-05-08T13:39:41;98642.53;;;18.85;55.61
22311;BME280;11323;49.610;11.016;2023-05-08T13:44:44;98633.59;;;18.86;55.57
22311;BME280;11323;49.610;11.016;2023-05-08T13:49:47;98635.22;;;18.87;55.42
22311;BME280;11323;49.610;11.016;2023-05-08T13:54:51;98630.75;;;18.88;55.73
22311;BME280;11323;49.610;11.016;2023-05-08T13:59:53;98619.38;;;18.87;55.46
22311;BME280;11323;49.610;11.016;2023-05-08T14:04:53;98618.56;;;18.87;55.56
22311;BME280;11323;49.610;11.016;2023-05-08T14:09:54;98624.31;;;18.90;55.66
22311;BME280;11323;49.610;11.016;2023-05-08T14:14:57;98625.13;;;18.91;55.39
22311;BME280;11323;49.610;11.016;2023-05-08T14:20:00;98625.94;;;18.91;55.40
22311;BME280;11323;49.610;11.016;2023-05-08T14:25:03;98611.72;;;18.92;55.29
22311;BME280;11323;49.610;11.016;2023-05-08T14:30:11;98607.25;;;18.93;55.27
22311;BME280;11323;49.610;11.016;2023-05-08T14:35:16;98608.09;;;18.93;55.35
22311;BME280;11323;49.610;11.016;2023-05-08T14:40:21;98603.44;;;18.95;55.30
22311;BME280;11323;49.610;11.016;2023-05-08T14:45:21;98598.50;;;18.92;55.43
22311;BME280;11323;49.610;11.016;2023-05-08T14:50:22;98599.16;;;18.94;55.34
22311;BME280;11323;49.610;11.016;2023-05-08T14:55:26;98590.59;;;18.92;55.46
22311;BME280;11323;49.610;11.016;2023-05-08T15:00:27;98598.16;;;18.95;55.57
22311;BME280;11323;49.610;11.016;2023-05-08T15:05:28;98594.72;;;18.95;55.32
22311;BME280;11323;49.610;11.016;2023-05-08T15:10:28;98600.81;;;18.95;55.55
22311;BME280;11323;49.610;11.016;2023-05-08T15:15:28;98606.09;;;18.95;55.09
22311;BME280;11323;49.610;11.016;2023-05-08T15:20:29;98594.91;;;18.93;55.45
22311;BME280;11323;49.610;11.016;2023-05-08T15:25:29;98600.81;;;18.95;55.37
22311;BME280;11323;49.610;11.016;2023-05-08T15:30:30;98590.25;;;18.95;55.63
22311;BME280;11323;49.610;11.016;2023-05-08T15:35:30;98590.88;;;18.97;55.47
22311;BME280;11323;49.610;11.016;2023-05-08T15:40:31;98590.25;;;18.95;55.56
22311;BME280;11323;49.610;11.016;2023-05-08T15:45:31;98590.25;;;18.95;55.64
22311;BME280;11323;49.610;11.016;2023-05-08T15:50:31;98598.16;;;18.95;55.79
22311;BME280;11323;49.610;11.016;2023-05-08T15:55:32;98595.81;;;19.01;55.36
22311;BME280;11323;49.610;11.016;2023-05-08T16:00:32;98591.53;;;19.00;55.35
22311;BME280;11323;49.610;11.016;2023-05-08T16:05:33;98592.31;;;19.00;55.40
22311;BME280;11323;49.610;11.016;2023-05-08T16:10:33;98591.53;;;19.00;55.23
22311;BME280;11323;49.610;11.016;2023-05-08T16:15:34;98582.75;;;18.99;55.21
22311;BME280;11323;49.610;11.016;2023-05-08T16:20:34;98577.69;;;18.97;55.21
22311;BME280;11323;49.610;11.016;2023-05-08T16:25:34;98575.66;;;19.00;55.56
22311;BME280;11323;49.610;11.016;2023-05-08T16:30:35;98567.13;;;18.97;55.06
22311;BME280;11323;49.610;11.016;2023-05-08T16:35:35;98580.94;;;19.00;55.20
22311;BME280;11323;49.610;11.016;2023-05-08T16:40:36;98577.31;;;19.01;55.39
22311;BME280;11323;49.610;11.016;2023-05-08T16:45:36;98576.69;;;18.98;55.29
22311;BME280;11323;49.610;11.016;2023-05-08T16:50:36;98585.41;;;18.99;55.33
22311;BME280;11323;49.610;11.016;2023-05-08T16:55:37;98586.25;;;19.00;55.31
22311;BME280;11323;49.610;11.016;2023-05-08T17:00:37;98589.13;;;19.05;55.85
22311;BME280;11323;49.610;11.016;2023-05-08T17:05:38;98595.31;;;19.12;56.11
22311;BME280;11323;49.610;11.016;2023-05-08T17:10:38;98583.09;;;19.11;56.30
22311;BME280;11323;49.610;11.016;2023-05-08T17:15:40;98593.72;;;19.18;56.41
22311;BME280;11323;49.610;11.016;2023-05-08T17:20:40;98596.16;;;19.19;56.60
22311;BME280;11323;49.610;11.016;2023-05-08T17:25:41;98597.44;;;19.23;56.53
22311;BME280;11323;49.610;11.016;2023-05-08T17:30:41;98597.44;;;19.23;56.55
22311;BME280;11323;49.610;11.016;2023-05-08T17:35:42;98591.75;;;19.26;56.67
22311;BME280;11323;49.610;11.016;2023-05-08T17:40:42;98595.41;;;19.25;56.68
22311;BME280;11323;49.610;11.016;2023-05-08T17:45:43;98606.44;;;19.29;56.86
22311;BME280;11323;49.610;11.016;2023-05-08T17:50:43;98603.59;;;19.31;57.07
22311;BME280;11323;49.610;11.016;2023-05-08T17:55:46;98609.50;;;19.33;57.10
22311;BME280;11323;49.610;11.016;2023-05-08T18:00:46;98616.00;;;19.30;57.34
22311;BME280;11323;49.610;11.016;2023-05-08T18:05:47;98621.47;;;19.28;57.23
22311;BME280;11323;49.610;11.016;2023-05-08T18:10:47;98629.38;;;19.28;57.17
22311;BME280;11323;49.610;11.016;2023-05-08T18:15:47;98625.50;;;19.24;57.16
22311;BME280;11323;49.610;11.016;2023-05-08T18:20:48;98634.22;;;19.25;57.02
22311;BME280;11323;49.610;11.016;2023-05-08T18:25:48;98634.81;;;19.20;56.71
22311;BME280;11323;49.610;11.016;2023-05-08T18:30:48;98626.69;;;19.22;56.71
22311;BME280;11323;49.610;11.016;2023-05-08T18:35:50;98630.78;;;19.24;56.68
22311;BME280;11323;49.610;11.016;2023-05-08T18:40:50;98627.31;;;19.24;56.80
22311;BME280;11323;49.610;11.016;2023-05-08T18:45:51;98639.31;;;19.26;56.93
22311;BME280;11323;49.610;11.016;2023-05-08T18:50:51;98636.50;;;19.28;56.77
22311;BME280;11323;49.610;11.016;2023-05-08T18:55:52;98643.59;;;19.27;57.15
22311;BME280;11323;49.610;11.016;2023-05-08T19:00:56;98645.88;;;19.31;57.14
22311;BME280;11323;49.610;11.016;2023-05-08T19:05:57;98650.78;;;19.34;57.36
22311;BME280;11323;49.610;11.016;2023-05-08T19:10:57;98652.81;;;19.32;57.64
22311;BME280;11323;49.610;11.016;2023-05-08T19:15:57;98651.97;;;19.31;57.46
22311;BME280;11323;49.610;11.016;2023-05-08T19:20:59;98651.59;;;19.34;57.30
22311;BME280;11323;49.610;11.016;2023-05-08T19:26:00;98645.50;;;19.34;57.46
22311;BME280;11323;49.610;11.016;2023-05-08T19:31:00;98649.16;;;19.33;57.45
22311;BME280;11323;49.610;11.016;2023-05-08T19:36:01;98653.59;;;19.32;57.63
22311;BME280;11323;49.610;11.016;2023-05-08T19:41:01;98652.22;;;19.36;57.41
22311;BME280;11323;49.610;11.016;2023-05-08T19:46:02;98651.66;;;19.41;57.79
22311;BME280;11323;49.610;11.016;2023-05-08T19:51:06;98654.94;;;19.43;57.69
22311;BME280;11323;49.610;11.016;2023-05-08T19:56:07;98652.31;;;19.43;57.52
22311;BME280;11323;49.610;11.016;2023-05-08T20:01:07;98649.47;;;19.44;57.72
22311;BME280;11323;49.610;11.016;2023-05-08T20:06:08;98652.94;;;19.45;57.72
22311;BME280;11323;49.610;11.016;2023-05-08T20:11:08;98656.22;;;19.47;57.57
22311;BME280;11323;49.610;11.016;2023-05-08T20:16:11;98654.09;;;19.42;57.93
22311;BME280;11323;49.610;11.016;2023-05-08T20:21:11;98657.03;;;19.48;57.76
22311;BME280;11323;49.610;11.016;2023-05-08T20:26:12;98657.81;;;19.48;57.86
22311;BME280;11323;49.610;11.016;2023-05-08T20:31:12;98656.81;;;19.49;57.64
22311;BME280;11323;49.610;11.016;2023-05-08T20:36:13;98645.25;;;19.50;57.81
22311;BME280;11323;49.610;11.016;2023-05-08T20:41:13;98640.97;;;19.49;57.73
22311;BME280;11323;49.610;11.016;2023-05-08T20:46:14;98644.06;;;19.53;57.79
22311;BME280;11323;49.610;11.016;2023-05-08T20:51:14;98639.78;;;19.52;57.81
22311;BME280;11323;49.610;11.016;2023-05-08T20:56:15;98634.66;;;19.50;57.80
22311;BME280;11323;49.610;11.016;2023-05-08T21:01:15;98635.94;;;19.54;57.56
22311;BME280;11323;49.610;11.016;2023-05-08T21:06:15;98628.63;;;19.56;57.54
22311;BME280;11323;49.610;11.016;2023-05-08T21:11:16;98627.63;;;19.57;57.74
22311;BME280;11323;49.610;11.016;2023-05-08T21:16:17;98623.34;;;19.56;57.65
22311;BME280;11323;49.610;11.016;2023-05-08T21:21:17;98617.06;;;19.57;57.52
22311;BME280;11323;49.610;11.016;2023-05-08T21:26:19;98616.06;;;19.58;57.94
22311;BME280;11323;49.610;11.016;2023-05-08T21:31:22;98610.75;;;19.58;57.59
22311;BME280;11323;49.610;11.016;2023-05-08T21:36:22;98598.91;;;19.54;56.93
22311;BME280;11323;49.610;11.016;2023-05-08T21:41:23;98603.84;;;19.57;57.22
22311;BME280;11323;49.610;11.016;2023-05-08T21:46:23;98595.28;;;19.55;57.78
22311;BME280;11323;49.610;11.016;2023-05-08T21:51:24;98588.97;;;19.56;57.69
22311;BME280;11323;49.610;11.016;2023-05-08T21:56:24;98586.34;;;19.56;57.17
22311;BME280;11323;49.610;11.016;2023-05-08T22:01:25;98584.31;;;19.58;57.55
22311;BME280;11323;49.610;11.016;2023-05-08T22:06:25;98586.34;;;19.56;56.55
22311;BME280;11323;49.610;11.016;2023-05-08T22:11:25;98590.78;;;19.56;57.46
22311;BME280;11323;49.610;11.016;2023-05-08T22:16:26;98588.34;;;19.54;57.42
22311;BME280;11323;49.610;11.016;2023-05-08T22:21:26;98589.34;;;19.53;57.14
22311;BME280;11323;49.610;11.016;2023-05-08T22:26:29;98594.63;;;19.53;57.31
22311;BME280;11323;49.610;11.016;2023-05-08T22:31:29;98591.38;;;19.51;57.08
22311;BME280;11323;49.610;11.016;2023-05-08T22:36:30;98584.63;;;19.49;57.11
22311;BME280;11323;49.610;11.016;2023-05-08T22:41:32;98585.22;;;19.44;57.19
22311;BME280;11323;49.610;11.016;2023-05-08T22:46:33;98585.00;;;19.45;57.19
22311;BME280;11323;49.610;11.016;2023-05-08T22:51:34;98593.16;;;19.44;57.20
22311;BME280;11323;49.610;11.016;2023-05-08T22:56:35;98589.88;;;19.42;57.16
22311;BME280;11323;49.610;11.016;2023-05-08T23:01:37;98577.66;;;19.41;57.40
22311;BME280;11323;49.610;11.016;2023-05-08T23:06:37;98581.13;;;19.41;57.13
22311;BME280;11323;49.610;11.016;2023-05-08T23:11:37;98576.03;;;19.40;57.08
22311;BME280;11323;49.610;11.016;2023-05-08T23:16:38;98572.75;;;19.38;57.01
22311;BME280;11323;49.610;11.016;2023-05-08T23:21:38;98561.94;;;19.33;57.29
22311;BME280;11323;49.610;11.016;2023-05-08T23:26:39;98567.88;;;19.35;57.04
22311;BME280;11323;49.610;11.016;2023-05-08T23:31:39;98560.09;;;19.33;57.35
22311;BME280;11323;49.610;11.016;2023-05-08T23:36:40;98561.31;;;19.31;57.32
22311;BME280;11323;49.610;11.016;2023-05-08T23:41:40;98566.22;;;19.34;57.45
22311;BME280;11323;49.610;11.016;2023-05-08T23:46:41;98556.41;;;19.27;57.32
22311;BME280;11323;49.610;11.016;2023-05-08T23:51:41;98550.13;;;19.28;57.45
22311;BME280;11323;49.610;11.016;2023-05-08T23:56:42;98540.53;;;19.27;57.26
